Time;durP1;ratioP1;P1;durP2;ratioP2;P2;SDS_P1;SDS_P2;PMS_P1;PMS_P2;Temp;Humidity;BMP_temperature;BMP_pressure;BME280_temperature;BME280_humidity;BME280_pressure;Samples;Min_cycle;Max_cycle;Signal;HPM_P1;HPM_P2
2022/06/02 00:01:04;;;;;;;;;;;13.50;80.90;;;;;;5106870;28;19912;-73
2022/06/02 00:03:48;;;;;;;;;;;13.50;80.90;;;;;;5108631;28;19915;-73
2022/06/02 00:06:13;;;;;;;;;;;13.50;81.80;;;;;;5105889;28;20326;-73
2022/06/02 00:09:05;;;;;;;;;;;13.50;82.10;;;;;;5108550;28;19920;-73
2022/06/02 00:11:33;;;;;;;;;;;13.50;82.10;;;;;;5106006;27;19911;-73
2022/06/02 00:14:18;;;;;;;;;;;13.50;82.20;;;;;;5123155;27;20643;-73
2022/06/02 00:16:52;;;;;;;;;;;13.40;81.50;;;;;;5111344;27;19915;-73
2022/06/02 00:19:27;;;;;;;;;;;13.40;81.30;;;;;;5109611;27;19920;-73
2022/06/02 00:21:57;;;;;;;;;;;13.40;82.00;;;;;;5111968;27;19911;-73
2022/06/02 00:24:27;;;;;;;;;;;13.40;82.40;;;;;;5119924;27;20006;-73
2022/06/02 00:27:31;;;;;;;;;;;13.40;82.50;;;;;;5112950;27;19969;-73
2022/06/02 00:30:16;;;;;;;;;;;13.30;82.10;;;;;;5045038;28;19920;-73
2022/06/02 00:32:50;;;;;;;;;;;13.30;82.30;;;;;;5042853;28;19917;-73
2022/06/02 00:35:22;;;;;;;;;;;13.30;82.20;;;;;;5072874;28;19912;-73
2022/06/02 00:37:47;;;;;;;;;;;13.30;82.30;;;;;;5104064;27;19951;-73
2022/06/02 00:40:13;;;;;;;;;;;13.30;82.70;;;;;;5108801;28;20006;-73
2022/06/02 00:42:49;;;;;;;;;;;13.20;82.70;;;;;;5105311;27;19949;-73
2022/06/02 00:45:15;;;;;;;;;;;13.20;82.50;;;;;;5108620;28;20386;-73
2022/06/02 00:47:50;;;;;;;;;;;13.20;82.60;;;;;;5105924;28;19920;-73
2022/06/02 00:50:18;;;;;;;;;;;13.20;82.70;;;;;;5108844;28;19951;-73
2022/06/02 00:52:51;;;;;;;;;;;13.20;82.90;;;;;;5105905;28;19922;-73
2022/06/02 00:58:12;;;;;;;;;;;13.10;82.80;;;;;;5106541;28;20647;-73
2022/06/02 01:00:41;;;;;;;;;;;13.10;82.70;;;;;;5107873;28;19911;-73
2022/06/02 01:03:12;;;;;;;;;;;13.10;82.90;;;;;;5105972;28;19942;-73
2022/06/02 01:05:48;;;;;;;;;;;13.10;83.00;;;;;;5102090;28;20008;-73
2022/06/02 01:08:25;;;;;;;;;;;13.10;82.90;;;;;;5097235;28;19923;-73
2022/06/02 01:11:04;;;;;;;;;;;13.00;82.90;;;;;;5108211;28;19912;-73
2022/06/02 01:13:39;;;;;;;;;;;13.00;83.10;;;;;;5117113;27;19965;-73
2022/06/02 01:16:18;;;;;;;;;;;13.00;82.90;;;;;;5161906;27;20035;-73
2022/06/02 01:18:44;;;;;;;;;;;13.00;82.80;;;;;;5107414;27;20482;-73
2022/06/02 01:21:12;;;;;;;;;;;13.00;82.80;;;;;;5123774;27;19912;-73
2022/06/02 01:23:41;;;;;;;;;;;12.90;82.80;;;;;;5120904;27;20137;-73
2022/06/02 01:26:12;;;;;;;;;;;12.90;82.70;;;;;;5128534;27;19911;-73
2022/06/02 01:28:46;;;;;;;;;;;12.90;82.80;;;;;;5123570;27;19970;-73
2022/06/02 01:31:24;;;;;;;;;;;12.90;82.70;;;;;;5128556;27;19915;-73
2022/06/02 01:33:52;;;;;;;;;;;12.90;82.80;;;;;;5117997;27;19916;-73
2022/06/02 01:36:17;;;;;;;;;;;12.90;82.80;;;;;;5107714;28;20046;-73
2022/06/02 01:38:55;;;;;;;;;;;12.90;82.70;;;;;;5105554;28;20022;-73
2022/06/02 01:41:33;;;;;;;;;;;12.90;82.80;;;;;;5107800;28;19912;-73
2022/06/02 01:44:14;;;;;;;;;;;12.80;82.80;;;;;;5105192;28;19916;-73
2022/06/02 01:46:39;;;;;;;;;;;12.80;82.80;;;;;;5107170;28;19939;-73
2022/06/02 01:49:05;;;;;;;;;;;12.80;82.80;;;;;;5105098;28;20575;-73
2022/06/02 01:51:34;;;;;;;;;;;12.80;82.80;;;;;;5107908;28;19911;-73
2022/06/02 01:54:22;;;;;;;;;;;12.80;82.80;;;;;;5105450;28;19912;-73
2022/06/02 01:56:54;;;;;;;;;;;12.80;82.70;;;;;;5107131;28;19918;-73
2022/06/02 01:59:25;;;;;;;;;;;12.80;83.00;;;;;;5104823;28;19920;-73
2022/06/02 02:02:03;;;;;;;;;;;12.80;83.00;;;;;;5107138;28;19918;-73
2022/06/02 02:04:37;;;;;;;;;;;12.70;83.00;;;;;;5105096;28;19916;-73
2022/06/02 02:07:06;;;;;;;;;;;12.70;82.90;;;;;;5106588;28;20754;-73
2022/06/02 02:09:40;;;;;;;;;;;12.70;82.80;;;;;;5104781;27;19928;-73
2022/06/02 02:12:09;;;;;;;;;;;12.70;82.90;;;;;;5106666;28;19911;-73
2022/06/02 02:14:56;;;;;;;;;;;12.70;82.90;;;;;;5123865;27;19912;-73
2022/06/02 02:17:40;;;;;;;;;;;12.70;82.90;;;;;;5093853;28;19912;-73
2022/06/02 02:20:05;;;;;;;;;;;12.60;82.80;;;;;;5107690;27;19923;-73
2022/06/02 02:22:46;;;;;;;;;;;12.70;82.80;;;;;;5106779;28;19964;-73
2022/06/02 02:25:28;;;;;;;;;;;12.60;82.70;;;;;;5111260;27;19916;-73
2022/06/02 02:28:12;;;;;;;;;;;12.60;82.80;;;;;;5117735;27;20368;-73
2022/06/02 02:30:43;;;;;;;;;;;12.60;82.70;;;;;;5109001;27;20395;-73
2022/06/02 02:33:14;;;;;;;;;;;12.60;82.70;;;;;;5105676;28;20388;-73
2022/06/02 02:35:46;;;;;;;;;;;12.60;82.80;;;;;;5086738;28;20026;-73
2022/06/02 02:38:15;;;;;;;;;;;12.60;82.80;;;;;;5106296;28;20484;-73
2022/06/02 02:40:51;;;;;;;;;;;12.60;82.70;;;;;;5104396;28;19912;-73
2022/06/02 02:43:24;;;;;;;;;;;12.60;82.70;;;;;;5106668;28;19912;-73
2022/06/02 02:46:05;;;;;;;;;;;12.50;82.70;;;;;;5103825;27;19911;-73
2022/06/02 02:48:49;;;;;;;;;;;12.50;82.70;;;;;;5105964;28;20716;-73
2022/06/02 02:51:21;;;;;;;;;;;12.50;82.60;;;;;;5103426;28;20414;-73
2022/06/02 02:53:49;;;;;;;;;;;12.50;82.60;;;;;;5100207;28;20454;-73
2022/06/02 02:56:16;;;;;;;;;;;12.50;82.70;;;;;;5103573;28;19996;-73
2022/06/02 02:58:44;;;;;;;;;;;12.50;82.60;;;;;;5105984;28;19911;-73
2022/06/02 03:01:28;;;;;;;;;;;12.50;82.60;;;;;;5106184;28;20352;-73
2022/06/02 03:04:12;;;;;;;;;;;12.50;82.70;;;;;;5106193;28;20400;-73
2022/06/02 03:06:39;;;;;;;;;;;12.40;82.70;;;;;;5103603;28;20523;-73
2022/06/02 03:09:28;;;;;;;;;;;12.40;82.60;;;;;;5105697;28;20269;-73
2022/06/02 03:11:53;;;;;;;;;;;12.40;82.60;;;;;;5094954;28;19950;-73
2022/06/02 03:14:28;;;;;;;;;;;12.40;82.70;;;;;;5123533;27;19998;-73
2022/06/02 03:17:02;;;;;;;;;;;12.40;82.80;;;;;;5121281;27;19965;-74
2022/06/02 03:19:38;;;;;;;;;;;12.40;82.90;;;;;;5107430;28;19916;-73
2022/06/02 03:22:24;;;;;;;;;;;12.40;82.80;;;;;;5126379;27;19951;-73
2022/06/02 03:25:06;;;;;;;;;;;12.40;82.80;;;;;;5110714;27;19967;-73
2022/06/02 03:27:32;;;;;;;;;;;12.30;82.70;;;;;;5103341;28;19912;-73
2022/06/02 03:30:06;;;;;;;;;;;12.30;82.80;;;;;;5105428;28;19958;-73
2022/06/02 03:32:41;;;;;;;;;;;12.30;82.80;;;;;;5103650;28;19911;-73
2022/06/02 03:35:15;;;;;;;;;;;12.30;82.80;;;;;;5104741;28;19918;-73
2022/06/02 03:37:41;;;;;;;;;;;12.30;82.80;;;;;;5103944;28;19912;-74
2022/06/02 03:40:14;;;;;;;;;;;12.30;82.80;;;;;;5104227;27;19957;-73
2022/06/02 03:42:45;;;;;;;;;;;12.30;83.50;;;;;;5104189;28;19912;-73
2022/06/02 03:45:18;;;;;;;;;;;12.20;82.70;;;;;;5103278;28;20511;-73
2022/06/02 03:47:52;;;;;;;;;;;12.20;82.80;;;;;;5105511;28;19958;-73
2022/06/02 03:50:29;;;;;;;;;;;12.20;82.80;;;;;;5103036;28;20648;-73
2022/06/02 03:52:57;;;;;;;;;;;12.20;83.30;;;;;;5105309;28;19972;-73
2022/06/02 03:55:42;;;;;;;;;;;12.20;82.60;;;;;;5102362;28;19922;-73
2022/06/02 03:58:30;;;;;;;;;;;12.20;82.50;;;;;;5105321;28;20614;-73
2022/06/02 04:01:04;;;;;;;;;;;12.20;82.60;;;;;;5104351;27;19916;-73
2022/06/02 04:03:33;;;;;;;;;;;12.20;82.70;;;;;;5105163;28;20010;-73
2022/06/02 04:06:06;;;;;;;;;;;12.20;82.70;;;;;;5120584;28;19922;-73
2022/06/02 04:08:50;;;;;;;;;;;12.20;82.80;;;;;;5116705;27;19915;-73
2022/06/02 04:13:37;;;;;;;;;;;12.20;82.70;;;;;;5103068;28;19919;-73
2022/06/02 04:14:29;;;;;;;;;;;12.20;82.70;;;;;;5118766;28;19918;-73
2022/06/02 04:17:21;;;;;;;;;;;12.20;82.70;;;;;;5104902;28;19955;-73
2022/06/02 04:22:55;;;;;;;;;;;12.10;82.60;;;;;;5104978;28;19957;-73
2022/06/02 04:25:36;;;;;;;;;;;12.10;82.70;;;;;;5113506;28;20347;-73
2022/06/02 04:28:04;;;;;;;;;;;12.10;82.70;;;;;;5105046;28;20607;-73
2022/06/02 04:30:47;;;;;;;;;;;12.10;82.60;;;;;;5102442;28;19924;-73
2022/06/02 04:33:27;;;;;;;;;;;12.10;82.60;;;;;;5105172;28;19911;-73
2022/06/02 04:36:12;;;;;;;;;;;12.10;82.50;;;;;;5103578;28;20303;-73
2022/06/02 04:38:38;;;;;;;;;;;12.10;82.60;;;;;;5107588;28;19911;-73
2022/06/02 04:41:24;;;;;;;;;;;12.10;82.60;;;;;;5105992;28;19989;-73
2022/06/02 04:43:53;;;;;;;;;;;12.10;82.50;;;;;;5107906;28;19912;-73
2022/06/02 04:46:18;;;;;;;;;;;12.10;82.40;;;;;;5105270;28;19920;-73
2022/06/02 04:49:02;;;;;;;;;;;12.10;82.70;;;;;;5088792;28;19924;-73
2022/06/02 04:51:35;;;;;;;;;;;12.10;82.50;;;;;;5093040;28;20718;-73
2022/06/02 04:54:01;;;;;;;;;;;12.10;82.90;;;;;;5106732;28;20332;-73
2022/06/02 04:56:29;;;;;;;;;;;12.10;82.80;;;;;;5094652;28;19960;-73
2022/06/02 04:59:10;;;;;;;;;;;12.10;82.80;;;;;;5108520;28;19954;-73
2022/06/02 05:01:41;;;;;;;;;;;12.10;82.80;;;;;;5105963;28;19942;-73
2022/06/02 05:04:13;;;;;;;;;;;12.10;82.80;;;;;;5108179;28;20022;-72
2022/06/02 05:06:57;;;;;;;;;;;12.10;82.80;;;;;;5105634;28;19920;-73
2022/06/02 05:09:35;;;;;;;;;;;12.10;82.90;;;;;;5108095;28;19915;-73
2022/06/02 05:12:01;;;;;;;;;;;12.10;82.60;;;;;;5105589;27;19922;-73
2022/06/02 05:14:45;;;;;;;;;;;12.10;82.50;;;;;;5127217;27;19911;-73
2022/06/02 05:17:29;;;;;;;;;;;12.00;82.50;;;;;;5120385;27;20606;-73
2022/06/02 05:20:02;;;;;;;;;;;12.00;82.60;;;;;;5106135;28;19959;-73
2022/06/02 05:22:40;;;;;;;;;;;12.00;82.50;;;;;;5105739;27;20315;-73
2022/06/02 05:25:20;;;;;;;;;;;12.00;82.60;;;;;;5118591;27;19912;-73
2022/06/02 05:27:49;;;;;;;;;;;12.00;82.70;;;;;;5105425;28;20360;-73
2022/06/02 05:30:15;;;;;;;;;;;12.10;82.70;;;;;;5107825;28;19973;-73
2022/06/02 05:32:41;;;;;;;;;;;12.00;82.70;;;;;;5105387;28;20010;-73
2022/06/02 05:35:18;;;;;;;;;;;12.10;82.50;;;;;;5107680;28;20002;-73
2022/06/02 05:37:44;;;;;;;;;;;12.10;82.70;;;;;;5105412;28;19964;-73
2022/06/02 05:40:19;;;;;;;;;;;12.10;82.50;;;;;;5108164;28;19920;-73
2022/06/02 05:42:47;;;;;;;;;;;12.10;82.40;;;;;;5105123;28;19911;-73
2022/06/02 05:45:15;;;;;;;;;;;12.10;82.40;;;;;;5107447;28;19920;-73
2022/06/02 05:48:01;;;;;;;;;;;12.10;82.40;;;;;;5107266;28;19919;-73
2022/06/02 05:50:38;;;;;;;;;;;12.20;82.50;;;;;;5065250;28;19928;-74
2022/06/02 05:53:23;;;;;;;;;;;12.20;82.40;;;;;;5093245;28;20536;-73
2022/06/02 05:56:03;;;;;;;;;;;12.20;82.40;;;;;;5107063;28;19942;-73
2022/06/02 05:58:32;;;;;;;;;;;12.20;82.40;;;;;;5104969;28;19941;-73
2022/06/02 06:01:03;;;;;;;;;;;12.20;82.40;;;;;;5106997;28;19976;-73
2022/06/02 06:03:43;;;;;;;;;;;12.20;82.30;;;;;;5105184;28;19908;-73
2022/06/02 06:06:14;;;;;;;;;;;12.30;82.40;;;;;;5105535;28;20293;-73
2022/06/02 06:08:57;;;;;;;;;;;12.30;82.40;;;;;;5104743;28;19916;-73
2022/06/02 06:11:41;;;;;;;;;;;12.30;82.40;;;;;;5106933;28;20053;-73
2022/06/02 06:14:30;;;;;;;;;;;12.30;82.30;;;;;;5116789;27;19913;-73
2022/06/02 06:16:59;;;;;;;;;;;12.30;82.40;;;;;;5106559;28;19912;-73
2022/06/02 06:19:33;;;;;;;;;;;12.30;82.40;;;;;;5105342;27;20022;-73
2022/06/02 06:21:59;;;;;;;;;;;12.40;82.50;;;;;;5127192;27;19915;-73
2022/06/02 06:24:24;;;;;;;;;;;12.40;82.50;;;;;;5121739;27;19912;-73
2022/06/02 06:26:50;;;;;;;;;;;12.40;82.30;;;;;;5106729;28;19911;-73
2022/06/02 06:29:21;;;;;;;;;;;12.30;82.40;;;;;;5105348;28;20669;-73
2022/06/02 06:32:01;;;;;;;;;;;12.40;82.50;;;;;;5105994;28;20018;-73
2022/06/02 06:34:42;;;;;;;;;;;12.40;82.40;;;;;;5106508;28;19919;-73
2022/06/02 06:37:07;;;;;;;;;;;12.50;82.30;;;;;;5106482;28;20276;-73
2022/06/02 06:39:52;;;;;;;;;;;12.50;82.40;;;;;;5106476;28;19919;-73
2022/06/02 06:42:17;;;;;;;;;;;12.50;82.20;;;;;;5086001;28;20010;-73
2022/06/02 06:44:56;;;;;;;;;;;12.50;82.10;;;;;;5085780;28;20386;-73
2022/06/02 06:47:21;;;;;;;;;;;12.60;82.20;;;;;;5103772;27;19916;-73
2022/06/02 06:50:03;;;;;;;;;;;12.60;82.20;;;;;;5105697;28;19922;-73
2022/06/02 06:52:47;;;;;;;;;;;12.60;82.00;;;;;;5103865;28;20011;-73
2022/06/02 06:55:15;;;;;;;;;;;12.60;82.00;;;;;;5098311;28;19912;-73
2022/06/02 06:57:50;;;;;;;;;;;12.60;81.90;;;;;;5103210;28;20002;-73
2022/06/02 07:00:24;;;;;;;;;;;12.70;81.90;;;;;;5105571;28;19911;-73
2022/06/02 07:03:08;;;;;;;;;;;12.70;81.70;;;;;;5103619;28;20694;-73
2022/06/02 07:05:59;;;;;;;;;;;12.80;81.50;;;;;;5106011;28;20375;-73
2022/06/02 07:08:37;;;;;;;;;;;12.80;81.30;;;;;;5092398;28;19926;-73
2022/06/02 07:11:05;;;;;;;;;;;12.90;81.20;;;;;;5103610;28;19912;-74
2022/06/02 07:13:37;;;;;;;;;;;12.90;81.10;;;;;;5117111;27;19919;-73
2022/06/02 07:16:08;;;;;;;;;;;13.00;81.00;;;;;;5126482;27;19919;-73
2022/06/02 07:18:39;;;;;;;;;;;13.00;80.90;;;;;;5104654;28;19912;-73
2022/06/02 07:21:23;;;;;;;;;;;13.10;80.80;;;;;;5121101;27;19911;-73
2022/06/02 07:24:04;;;;;;;;;;;13.20;80.90;;;;;;5111467;27;19911;-73
2022/06/02 07:26:47;;;;;;;;;;;13.30;80.50;;;;;;5107531;27;20010;-73
2022/06/02 07:29:42;;;;;;;;;;;13.30;80.50;;;;;;5085012;28;19927;-73
2022/06/02 07:32:17;;;;;;;;;;;13.40;80.30;;;;;;5028954;28;19917;-73
2022/06/02 07:34:52;;;;;;;;;;;13.50;80.10;;;;;;5085479;28;19919;-73
2022/06/02 07:37:17;;;;;;;;;;;13.50;79.80;;;;;;5086061;28;19923;-73
2022/06/02 07:39:55;;;;;;;;;;;13.60;79.80;;;;;;5105455;28;19908;-73
2022/06/02 07:42:33;;;;;;;;;;;13.60;79.80;;;;;;5103441;28;20650;-73
2022/06/02 07:45:13;;;;;;;;;;;13.60;79.90;;;;;;5105423;28;20541;-73
2022/06/02 07:47:50;;;;;;;;;;;13.60;80.00;;;;;;5102864;28;19924;-73
2022/06/02 07:50:25;;;;;;;;;;;13.60;80.00;;;;;;5104004;28;19968;-73
2022/06/02 07:52:57;;;;;;;;;;;13.60;80.00;;;;;;5102843;28;19919;-73
2022/06/02 07:55:39;;;;;;;;;;;13.60;80.10;;;;;;5105407;28;20299;-73
2022/06/02 07:58:15;;;;;;;;;;;13.60;80.10;;;;;;5102840;28;19920;-73
2022/06/02 08:00:44;;;;;;;;;;;13.60;80.10;;;;;;5105357;28;20013;-74
2022/06/02 08:03:45;;;;;;;;;;;13.60;80.20;;;;;;5103328;28;19912;-73
2022/06/02 08:06:13;;;;;;;;;;;13.50;80.20;;;;;;5041950;28;19962;-73
2022/06/02 08:08:51;;;;;;;;;;;13.60;80.30;;;;;;5090552;28;19919;-73
2022/06/02 08:11:36;;;;;;;;;;;13.60;80.30;;;;;;5106765;28;19980;-73
2022/06/02 08:14:22;;;;;;;;;;;13.60;80.30;;;;;;5116378;27;19916;-74
2022/06/02 08:17:01;;;;;;;;;;;13.60;80.30;;;;;;5108144;28;19908;-73
2022/06/02 08:19:29;;;;;;;;;;;13.60;80.30;;;;;;5112692;27;20412;-73
2022/06/02 08:21:57;;;;;;;;;;;13.60;80.30;;;;;;5129729;27;19915;-73
2022/06/02 08:24:34;;;;;;;;;;;13.60;80.30;;;;;;5121795;27;20284;-73
2022/06/02 08:27:08;;;;;;;;;;;13.60;80.20;;;;;;5108658;28;20564;-73
2022/06/02 08:29:33;;;;;;;;;;;13.70;80.30;;;;;;5106089;28;19920;-73
2022/06/02 08:32:03;;;;;;;;;;;13.70;80.30;;;;;;5108689;28;19912;-73
2022/06/02 08:34:48;;;;;;;;;;;13.70;80.30;;;;;;5106667;28;19999;-73
2022/06/02 08:37:25;;;;;;;;;;;13.70;80.20;;;;;;5108945;27;19963;-73
2022/06/02 08:39:55;;;;;;;;;;;13.70;80.10;;;;;;5106215;28;19996;-73
2022/06/02 08:42:21;;;;;;;;;;;13.80;80.10;;;;;;5108766;28;19911;-73
2022/06/02 08:44:55;;;;;;;;;;;13.80;80.00;;;;;;5106388;27;19912;-73
2022/06/02 08:47:39;;;;;;;;;;;13.90;79.90;;;;;;5108620;28;19954;-73
2022/06/02 08:50:10;;;;;;;;;;;14.00;79.60;;;;;;5106100;28;19924;-73
2022/06/02 08:53:03;;;;;;;;;;;14.20;79.30;;;;;;5108625;28;19912;-73
2022/06/02 08:55:29;;;;;;;;;;;14.30;78.90;;;;;;5104724;27;20459;-73
2022/06/02 08:58:06;;;;;;;;;;;14.40;78.40;;;;;;5127554;27;19911;-73
2022/06/02 09:00:50;;;;;;;;;;;14.50;78.20;;;;;;5123201;27;19966;-73
2022/06/02 09:03:35;;;;;;;;;;;14.60;77.90;;;;;;5108241;28;19915;-73
2022/06/02 09:06:03;;;;;;;;;;;14.70;77.40;;;;;;5105500;28;19912;-73
2022/06/02 09:08:28;;;;;;;;;;;14.80;77.20;;;;;;5107761;28;19927;-73
2022/06/02 09:10:54;;;;;;;;;;;14.80;77.10;;;;;;5105671;28;19919;-73
2022/06/02 09:13:32;;;;;;;;;;;14.90;76.60;;;;;;5117371;27;19919;-74
2022/06/02 09:16:36;;;;;;;;;;;15.00;76.70;;;;;;5123916;27;19911;-74
2022/06/02 09:19:19;;;;;;;;;;;15.10;76.80;;;;;;5044301;28;20374;-73
2022/06/02 09:21:52;;;;;;;;;;;15.20;76.80;;;;;;5041224;28;20289;-74
2022/06/02 09:24:25;;;;;;;;;;;15.30;76.60;;;;;;5094447;27;19996;-73
2022/06/02 09:27:04;;;;;;;;;;;15.40;76.60;;;;;;5090501;28;19938;-74
2022/06/02 09:29:47;;;;;;;;;;;15.40;76.20;;;;;;5105401;28;19919;-74
2022/06/02 09:32:28;;;;;;;;;;;15.50;75.70;;;;;;5091711;28;19915;-74
2022/06/02 09:35:01;;;;;;;;;;;15.60;75.40;;;;;;5106616;28;19942;-74
2022/06/02 09:37:32;;;;;;;;;;;15.70;75.50;;;;;;5105205;28;20015;-74
2022/06/02 09:40:03;;;;;;;;;;;15.80;75.00;;;;;;5107467;28;19984;-74
2022/06/02 09:42:35;;;;;;;;;;;15.90;75.10;;;;;;5105087;27;19915;-74
2022/06/02 09:45:14;;;;;;;;;;;15.90;74.60;;;;;;5107597;28;19916;-74
2022/06/02 09:47:48;;;;;;;;;;;15.90;75.20;;;;;;5104787;28;19920;-74
2022/06/02 09:50:16;;;;;;;;;;;15.90;75.00;;;;;;5107129;28;19916;-74
2022/06/02 09:52:48;;;;;;;;;;;15.80;75.00;;;;;;5104582;28;20352;-74
2022/06/02 09:55:32;;;;;;;;;;;15.80;75.20;;;;;;5107410;28;19911;-74
2022/06/02 09:58:12;;;;;;;;;;;15.80;75.30;;;;;;5104800;28;19918;-74
2022/06/02 10:00:44;;;;;;;;;;;15.80;75.60;;;;;;5107132;28;19915;-74
2022/06/02 10:03:09;;;;;;;;;;;15.80;75.60;;;;;;5104678;28;19919;-74
2022/06/02 10:05:35;;;;;;;;;;;15.70;75.60;;;;;;5106960;28;19933;-74
2022/06/02 10:08:12;;;;;;;;;;;15.70;75.70;;;;;;5104563;28;20006;-74
2022/06/02 10:10:39;;;;;;;;;;;15.80;75.80;;;;;;5107028;28;20017;-74
2022/06/02 10:13:23;;;;;;;;;;;15.80;75.80;;;;;;5110282;27;19915;-73
2022/06/02 10:16:07;;;;;;;;;;;15.80;75.80;;;;;;5106468;28;19919;-74
2022/06/02 10:18:51;;;;;;;;;;;15.80;75.70;;;;;;5104191;28;19937;-74
2022/06/02 10:21:25;;;;;;;;;;;15.80;75.70;;;;;;5123955;27;20010;-74
2022/06/02 10:24:00;;;;;;;;;;;15.80;75.70;;;;;;5121652;27;19938;-74
2022/06/02 10:26:46;;;;;;;;;;;15.80;75.80;;;;;;5106392;28;19941;-74
2022/06/02 10:29:38;;;;;;;;;;;15.80;75.70;;;;;;5103596;28;20398;-74
2022/06/02 10:32:22;;;;;;;;;;;15.80;75.70;;;;;;5084140;28;19912;-74
2022/06/02 10:34:51;;;;;;;;;;;15.80;75.70;;;;;;5092381;28;19920;-74
2022/06/02 10:37:25;;;;;;;;;;;15.90;75.90;;;;;;5104843;28;19961;-74
2022/06/02 10:39:51;;;;;;;;;;;15.90;75.80;;;;;;5103036;28;20006;-74
2022/06/02 10:42:35;;;;;;;;;;;15.90;75.80;;;;;;5106396;28;20342;-74
2022/06/02 10:45:01;;;;;;;;;;;16.00;75.50;;;;;;5109809;27;20291;-74
2022/06/02 10:47:29;;;;;;;;;;;15.90;75.50;;;;;;5118559;27;19912;-74
2022/06/02 10:50:23;;;;;;;;;;;16.00;75.40;;;;;;5104139;28;19920;-74
2022/06/02 10:53:04;;;;;;;;;;;16.20;75.10;;;;;;5091781;28;19918;-74
2022/06/02 10:55:36;;;;;;;;;;;16.30;74.90;;;;;;5102262;28;19919;-74
2022/06/02 10:58:01;;;;;;;;;;;16.40;74.20;;;;;;5106407;28;20284;-74
2022/06/02 11:00:33;;;;;;;;;;;16.60;73.90;;;;;;5103950;28;19916;-73
2022/06/02 11:03:17;;;;;;;;;;;16.80;74.20;;;;;;5105774;28;19922;-73
2022/06/02 11:05:49;;;;;;;;;;;16.80;73.90;;;;;;5103919;27;19973;-73
2022/06/02 11:08:33;;;;;;;;;;;16.90;73.80;;;;;;5106189;27;19918;-73
2022/06/02 11:11:01;;;;;;;;;;;17.00;73.50;;;;;;5103491;28;20038;-73
2022/06/02 11:13:29;;;;;;;;;;;17.20;73.20;;;;;;5116196;27;19916;-73
2022/06/02 11:15:58;;;;;;;;;;;17.30;72.80;;;;;;5118589;27;19916;-74
2022/06/02 11:18:35;;;;;;;;;;;17.50;72.10;;;;;;5105758;28;19951;-73
2022/06/02 11:21:12;;;;;;;;;;;17.60;72.00;;;;;;5108207;27;20395;-73
2022/06/02 11:23:50;;;;;;;;;;;17.70;71.90;;;;;;5104077;28;19972;-73
2022/06/02 11:26:31;;;;;;;;;;;17.90;71.10;;;;;;5103123;28;19916;-73
2022/06/02 11:28:59;;;;;;;;;;;18.00;71.00;;;;;;5105193;28;19920;-73
2022/06/02 11:31:51;;;;;;;;;;;18.20;71.10;;;;;;5089680;28;19939;-74
2022/06/02 11:34:23;;;;;;;;;;;18.30;70.40;;;;;;5103793;28;19912;-73
2022/06/02 11:37:03;;;;;;;;;;;18.40;70.30;;;;;;5102982;28;19915;-73
2022/06/02 11:40:04;;;;;;;;;;;18.60;70.10;;;;;;5105297;28;19912;-73
2022/06/02 11:42:48;;;;;;;;;;;18.70;70.00;;;;;;5059846;28;19923;-73
2022/06/02 11:45:31;;;;;;;;;;;18.80;69.70;;;;;;5103494;28;20000;-73
2022/06/02 11:48:16;;;;;;;;;;;19.00;69.20;;;;;;5107446;28;20070;-73
2022/06/02 11:51:02;;;;;;;;;;;19.20;69.00;;;;;;5109713;28;20018;-73
2022/06/02 11:53:32;;;;;;;;;;;19.30;68.10;;;;;;5107448;27;19916;-72
2022/06/02 11:56:00;;;;;;;;;;;19.40;67.90;;;;;;5109138;28;20006;-73
2022/06/02 11:58:35;;;;;;;;;;;19.30;68.00;;;;;;5107066;28;19911;-73
2022/06/02 12:01:24;;;;;;;;;;;19.40;68.20;;;;;;5109379;28;19912;-74
2022/06/02 12:03:50;;;;;;;;;;;19.40;68.50;;;;;;5107234;28;19915;-73
2022/06/02 12:06:34;;;;;;;;;;;19.30;68.80;;;;;;5109209;27;20002;-73
2022/06/02 12:09:00;;;;;;;;;;;19.30;69.10;;;;;;5106902;28;19987;-73
2022/06/02 12:11:35;;;;;;;;;;;19.30;69.30;;;;;;5109337;28;20381;-73
2022/06/02 12:14:20;;;;;;;;;;;19.30;69.30;;;;;;5109539;27;19940;-74
2022/06/02 12:17:04;;;;;;;;;;;19.30;69.20;;;;;;5106765;28;19994;-74
2022/06/02 12:19:35;;;;;;;;;;;19.30;69.20;;;;;;5115187;27;19916;-74
2022/06/02 12:22:10;;;;;;;;;;;19.30;69.20;;;;;;5128617;27;20012;-74
2022/06/02 12:24:45;;;;;;;;;;;19.30;69.20;;;;;;5124242;27;19968;-74
2022/06/02 12:27:24;;;;;;;;;;;19.30;69.30;;;;;;5095250;28;20038;-73
2022/06/02 12:30:04;;;;;;;;;;;19.20;69.60;;;;;;5100267;28;20019;-74
2022/06/02 12:32:48;;;;;;;;;;;19.20;69.80;;;;;;5108698;28;19918;-74
2022/06/02 12:35:16;;;;;;;;;;;19.20;69.90;;;;;;5106665;28;19912;-73
2022/06/02 12:37:51;;;;;;;;;;;19.30;69.50;;;;;;5108615;28;20623;-74
2022/06/02 12:40:22;;;;;;;;;;;19.30;69.40;;;;;;5106204;28;19923;-74
2022/06/02 12:43:13;;;;;;;;;;;19.30;69.20;;;;;;5108601;28;20019;-74
2022/06/02 12:45:45;;;;;;;;;;;19.30;69.00;;;;;;5107279;27;19915;-73
2022/06/02 12:48:29;;;;;;;;;;;19.30;69.40;;;;;;5108845;28;19989;-74
2022/06/02 12:51:01;;;;;;;;;;;19.40;69.10;;;;;;5105628;28;20740;-73
2022/06/02 12:53:41;;;;;;;;;;;19.60;68.60;;;;;;5103698;28;19912;-74
2022/06/02 12:56:16;;;;;;;;;;;19.70;68.10;;;;;;5114567;27;20503;-73
2022/06/02 12:59:00;;;;;;;;;;;19.80;67.60;;;;;;5123211;27;20013;-73
2022/06/02 13:01:26;;;;;;;;;;;19.90;67.10;;;;;;5107893;27;19984;-73
2022/06/02 13:03:51;;;;;;;;;;;20.10;66.90;;;;;;5107460;28;19977;-73
2022/06/02 13:06:26;;;;;;;;;;;20.10;66.80;;;;;;5104702;28;19919;-73
2022/06/02 13:09:03;;;;;;;;;;;20.30;66.40;;;;;;5106978;28;20575;-73
2022/06/02 13:11:47;;;;;;;;;;;20.40;66.40;;;;;;5105126;28;19928;-73
2022/06/02 13:14:13;;;;;;;;;;;20.50;66.20;;;;;;5109297;27;20450;-73
2022/06/02 13:16:42;;;;;;;;;;;20.50;66.30;;;;;;5105218;27;19915;-73
2022/06/02 13:19:26;;;;;;;;;;;20.60;66.40;;;;;;5107656;28;20399;-73
2022/06/02 13:22:02;;;;;;;;;;;20.70;66.20;;;;;;5099422;28;19922;-73
2022/06/02 13:24:33;;;;;;;;;;;20.70;66.30;;;;;;5118174;27;20469;-73
2022/06/02 13:27:17;;;;;;;;;;;20.80;66.10;;;;;;5104417;28;19915;-73
2022/06/02 13:29:58;;;;;;;;;;;20.90;66.20;;;;;;5106839;28;19923;-73
2022/06/02 13:32:23;;;;;;;;;;;21.00;66.10;;;;;;5119035;27;19915;-73
2022/06/02 13:35:07;;;;;;;;;;;21.00;66.10;;;;;;5127512;27;20363;-73
2022/06/02 13:37:57;;;;;;;;;;;21.10;65.90;;;;;;5109060;27;20428;-73
2022/06/02 13:40:41;;;;;;;;;;;21.20;65.80;;;;;;5108394;27;19923;-73
2022/06/02 13:43:07;;;;;;;;;;;21.30;65.70;;;;;;5104550;27;19916;-73
2022/06/02 13:45:44;;;;;;;;;;;21.30;65.60;;;;;;5106855;28;19911;-73
2022/06/02 13:48:28;;;;;;;;;;;21.40;65.70;;;;;;5103958;27;20372;-73
2022/06/02 13:51:26;;;;;;;;;;;21.50;65.50;;;;;;5109488;27;20590;-73
2022/06/02 13:59:20;;;;;;;;;;;21.70;65.10;;;;;;5085460;28;19919;-73
2022/06/02 14:02:04;;;;;;;;;;;21.80;65.10;;;;;;5084540;28;20538;-73
2022/06/02 14:04:50;;;;;;;;;;;21.90;65.90;;;;;;5086921;28;19912;-73
2022/06/02 14:07:21;;;;;;;;;;;21.90;64.90;;;;;;5088530;28;19920;-73
2022/06/02 14:10:05;;;;;;;;;;;22.00;65.20;;;;;;5107021;28;19922;-73
2022/06/02 14:12:43;;;;;;;;;;;22.10;64.30;;;;;;5106012;27;20010;-73
2022/06/02 14:15:09;;;;;;;;;;;22.10;64.30;;;;;;5107986;28;20002;-73
2022/06/02 14:17:49;;;;;;;;;;;22.20;64.10;;;;;;5105203;28;20002;-72
2022/06/02 14:20:33;;;;;;;;;;;22.30;63.80;;;;;;5107168;28;19912;-72
2022/06/02 14:23:02;;;;;;;;;;;22.30;63.00;;;;;;5104727;27;20030;-73
2022/06/02 14:25:41;;;;;;;;;;;22.40;63.00;;;;;;5118153;27;20356;-73
2022/06/02 14:28:15;;;;;;;;;;;22.50;62.90;;;;;;5087956;28;19916;-73
2022/06/02 14:30:45;;;;;;;;;;;22.60;62.80;;;;;;5107490;28;19916;-73
2022/06/02 14:33:31;;;;;;;;;;;22.70;62.70;;;;;;5104742;28;19912;-73
2022/06/02 14:36:03;;;;;;;;;;;22.80;62.60;;;;;;5106675;28;20611;-73
2022/06/02 14:38:37;;;;;;;;;;;22.90;62.00;;;;;;5104371;28;19919;-73
2022/06/02 14:41:20;;;;;;;;;;;23.00;61.90;;;;;;5107191;28;19922;-73
2022/06/02 14:43:46;;;;;;;;;;;23.10;61.30;;;;;;5104519;28;19916;-73
2022/06/02 14:46:16;;;;;;;;;;;23.20;61.50;;;;;;5106774;28;19973;-73
2022/06/02 14:49:00;;;;;;;;;;;23.40;60.80;;;;;;5104569;28;19931;-73
2022/06/02 14:51:25;;;;;;;;;;;23.50;60.40;;;;;;5106871;28;19918;-73
2022/06/02 14:54:11;;;;;;;;;;;23.70;60.10;;;;;;5104801;28;19911;-73
2022/06/02 14:56:41;;;;;;;;;;;23.90;59.60;;;;;;5063382;28;19916;-73
2022/06/02 14:59:15;;;;;;;;;;;24.00;59.00;;;;;;5104309;28;19919;-73
2022/06/02 15:01:56;;;;;;;;;;;24.20;58.80;;;;;;5106831;28;20332;-73
2022/06/02 15:04:30;;;;;;;;;;;24.40;58.30;;;;;;5104100;28;19929;-73
2022/06/02 15:07:20;;;;;;;;;;;24.50;58.00;;;;;;5106424;28;20268;-73
2022/06/02 15:09:58;;;;;;;;;;;24.70;57.60;;;;;;5104428;28;19920;-73
2022/06/02 15:12:42;;;;;;;;;;;25.00;57.20;;;;;;5107988;27;20271;-73
2022/06/02 15:15:26;;;;;;;;;;;25.10;56.90;;;;;;5119176;27;19912;-73
2022/06/02 15:18:01;;;;;;;;;;;25.30;56.40;;;;;;5104065;28;19922;-73